Swales, Pennsylvania
Current Conditions -  °F | °C
As of 4:53 AM on Thursday 23 Oct 2014 (Local Time) from KSEG Reporting Station
Broken Clouds Broken Clouds  
Wind Chill: 51°   Ceiling: 8500
Heat Index: 51°   Visibility: 10mi
Dew Point: 42°   Wind: 12mph
Humidity: 71%   Direction: 340°NNW
Pressure: 29.91"   Gusts: 22mph
Location:  40.6534°N, 77.2807°W
Report Text: KSEG 230853Z AUTO 34010G19KT 10SM FEW030 FEW070 BKN085 11/06 A2991 RMK AO2 SLP127 60000 T01060056 56010
Loading
Personal Weather Stations






























Interactive Weather Map
Tropical Storm Tracking
New forecast layout! Learn more

10-Day Weather Forecast

Advertisements
Track Severe Weather on mobile